Time;durP1;ratioP1;P1;durP2;ratioP2;P2;SDS_P1;SDS_P2;PMS_P1;PMS_P2;Temp;Humidity;BMP_temperature;BMP_pressure;BME280_temperature;BME280_humidity;BME280_pressure;Samples;Min_cycle;Max_cycle;Signal;HPM_P1;HPM_P2
2023/11/26 00:00:44;;;;;;;18.88;8.45;;;;;;;7.95;72.76;101461.41;5049258;28;20041;-67
2023/11/26 00:03:11;;;;;;;26.30;8.88;;;;;;;8.64;68.18;101464.22;5048601;28;20041;-65
2023/11/26 00:05:39;;;;;;;18.13;8.55;;;;;;;8.77;67.94;101471.03;5050096;28;20053;-66
2023/11/26 00:08:06;;;;;;;18.85;8.10;;;;;;;9.37;64.76;101453.28;5051528;28;20048;-67
2023/11/26 00:10:33;;;;;;;20.23;7.50;;;;;;;9.06;64.05;101463.69;5043087;28;20037;-66
2023/11/26 00:13:01;;;;;;;18.08;8.00;;;;;;;9.39;63.46;101462.06;5050303;28;20444;-66
2023/11/26 00:15:28;;;;;;;19.77;8.10;;;;;;;9.03;63.56;101467.03;5042387;28;20052;-65
2023/11/26 00:17:56;;;;;;;16.83;7.32;;;;;;;9.08;63.18;101465.03;5058198;28;20048;-65
2023/11/26 00:20:24;;;;;;;17.92;7.35;;;;;;;9.21;63.46;101471.00;5059137;28;20047;-66
2023/11/26 00:22:51;;;;;;;18.05;8.02;;;;;;;9.32;62.66;101465.16;5056194;28;20052;-65
2023/11/26 00:25:18;;;;;;;14.15;6.55;;;;;;;9.56;62.08;101460.53;5049448;28;20056;-65
2023/11/26 00:27:45;;;;;;;15.90;7.20;;;;;;;9.44;61.58;101467.53;5036282;28;20075;-65
2023/11/26 00:30:13;;;;;;;16.95;8.38;;;;;;;9.96;61.79;101465.66;5034711;28;20707;-65
2023/11/26 00:32:40;;;;;;;17.55;8.07;;;;;;;9.39;58.37;101459.31;5047877;28;20053;-65
2023/11/26 00:35:08;;;;;;;21.52;8.80;;;;;;;8.70;60.56;101465.03;5052641;28;20045;-65
2023/11/26 00:37:35;;;;;;;15.88;8.15;;;;;;;8.84;63.50;101464.09;5053953;28;20488;-66
2023/11/26 00:40:05;;;;;;;22.35;8.25;;;;;;;8.11;61.97;101451.22;5053525;28;20057;-65
2023/11/26 00:42:32;;;;;;;;;;;;;;;7.83;63.80;101452.66;5067276;28;20059;-64
2023/11/26 00:44:59;;;;;;;30.05;10.05;;;;;;;8.53;66.52;101454.38;5036070;28;19927;-65
2023/11/26 00:47:26;;;;;;;18.70;8.27;;;;;;;7.88;62.69;101449.91;5052860;28;20064;-65
2023/11/26 00:49:58;;;;;;;24.38;9.43;;;;;;;7.91;65.87;101452.09;5047446;28;20045;-65
2023/11/26 00:52:25;;;;;;;27.40;9.90;;;;;;;7.08;65.31;101460.91;5053655;28;20036;-65
2023/11/26 00:54:53;;;;;;;24.67;9.98;;;;;;;7.46;67.39;101448.63;5074021;28;20118;-65
2023/11/26 00:57:20;;;;;;;25.92;9.20;;;;;;;6.84;66.06;101457.03;5066860;28;20727;-64
2023/11/26 00:59:47;;;;;;;21.25;8.77;;;;;;;7.18;68.65;101457.38;5055492;28;20048;-65
2023/11/26 01:02:14;;;;;;;23.58;8.82;;;;;;;7.53;68.66;101454.63;5047135;28;20049;-65
2023/11/26 01:04:45;;;;;;;29.75;9.52;;;;;;;8.41;66.10;101447.56;5035293;28;20053;-66
2023/11/26 01:07:13;;;;;;;23.05;8.88;;;;;;;8.37;65.14;101450.06;5050605;28;20065;-65
2023/11/26 01:09:40;;;;;;;21.10;8.65;;;;;;;8.01;64.19;101448.50;5034941;28;20057;-66
2023/11/26 01:12:07;;;;;;;18.73;7.65;;;;;;;7.89;67.66;101448.81;5033454;28;20052;-65
2023/11/26 01:14:34;;;;;;;16.83;7.35;;;;;;;7.60;64.97;101449.69;5033837;28;20058;-65
2023/11/26 01:17:02;;;;;;;17.55;7.50;;;;;;;8.38;67.21;101450.88;5036277;28;20076;-65
2023/11/26 01:19:29;;;;;;;18.25;7.43;;;;;;;8.89;65.64;101444.84;5075132;28;20051;-66
2023/11/26 01:21:56;;;;;;;22.92;8.15;;;;;;;9.22;63.71;101447.91;5074673;28;20040;-65
2023/11/26 01:24:25;;;;;;;26.52;9.18;;;;;;;8.30;61.43;101440.50;5054457;28;20048;-66
2023/11/26 01:26:52;;;;;;;22.45;8.43;;;;;;;7.82;63.92;101448.28;5055147;28;20041;-66
2023/11/26 01:29:19;;;;;;;30.40;9.45;;;;;;;8.26;64.92;101442.16;5054936;28;20464;-66
2023/11/26 01:31:46;;;;;;;21.13;7.25;;;;;;;7.69;63.07;101446.09;5054880;28;20071;-66
2023/11/26 01:34:14;;;;;;;21.00;7.82;;;;;;;7.85;65.41;101444.97;5070739;28;20730;-67
2023/11/26 01:36:41;;;;;;;23.05;7.57;;;;;;;7.97;66.09;101441.94;5072649;28;20049;-66
2023/11/26 01:39:09;;;;;;;21.23;7.00;;;;;;;8.57;66.62;101443.66;5064117;28;20053;-65
2023/11/26 01:41:36;;;;;;;15.88;6.88;;;;;;;8.28;64.10;101446.25;5039786;28;20500;-65
2023/11/26 01:44:07;;;;;;;20.55;7.63;;;;;;;7.45;65.04;101446.94;5038919;28;20053;-65
2023/11/26 01:46:34;;;;;;;25.15;9.27;;;;;;;7.81;67.64;101456.81;5034406;28;20053;-66
2023/11/26 01:49:02;;;;;;;27.25;10.50;;;;;;;7.49;64.45;101450.78;5034147;28;20049;-65
2023/11/26 01:51:32;;;;;;;28.75;9.18;;;;;;;7.69;64.89;101450.75;5033060;28;20045;-66
2023/11/26 01:54:00;;;;;;;21.88;9.57;;;;;;;8.23;66.87;101454.47;5048688;28;20041;-65
2023/11/26 01:56:28;;;;;;;21.92;7.97;;;;;;;7.69;63.72;101448.00;5002844;28;20045;-66
2023/11/26 01:58:58;;;;;;;19.88;7.85;;;;;;;8.33;68.02;101449.00;5054244;28;20630;-65
2023/11/26 02:01:27;;;;;;;16.83;7.05;;;;;;;8.55;65.82;101452.19;5052865;28;20052;-66
2023/11/26 02:03:54;;;;;;;22.02;8.52;;;;;;;8.68;63.10;101451.53;5054507;28;20071;-65
2023/11/26 02:06:23;;;;;;;24.83;8.32;;;;;;;8.19;63.84;101452.56;5030907;28;20057;-66
2023/11/26 02:08:51;;;;;;;17.02;7.18;;;;;;;7.69;64.39;101453.50;5049172;28;20060;-65
2023/11/26 02:11:18;;;;;;;18.20;6.75;;;;;;;8.05;66.59;101449.59;5052294;28;20041;-66
2023/11/26 02:13:47;;;;;;;14.90;6.85;;;;;;;8.24;66.19;101450.66;5050756;28;20063;-65
2023/11/26 02:16:15;;;;;;;23.50;8.02;;;;;;;8.09;67.12;101447.13;5051878;28;20061;-65
2023/11/26 02:18:43;;;;;;;18.45;7.22;;;;;;;8.47;65.49;101458.22;5068730;28;20538;-66
2023/11/26 02:21:11;;;;;;;23.55;8.70;;;;;;;7.79;62.76;101459.00;5071956;28;20055;-65
2023/11/26 02:23:40;;;;;;;26.63;9.40;;;;;;;7.46;65.40;101454.09;5072796;28;20063;-65
2023/11/26 02:26:10;;;;;;;26.42;8.07;;;;;;;6.65;66.39;101464.94;5040844;28;20460;-65
2023/11/26 02:28:41;;;;;;;20.80;7.40;;;;;;;7.40;70.06;101458.75;5068533;28;20079;-65
2023/11/26 02:31:10;;;;;;;17.02;7.00;;;;;;;7.69;68.02;101458.97;5052322;28;20060;-65
2023/11/26 02:33:37;;;;;;;17.00;7.18;;;;;;;7.56;67.26;101454.06;5051218;28;20061;-65
2023/11/26 02:36:25;;;;;;;15.70;6.05;;;;;;;7.63;66.19;101458.19;5051047;28;20053;-65
2023/11/26 02:38:54;;;;;;;17.70;7.15;;;;;;;7.66;66.51;101452.16;5050627;28;20511;-65
2023/11/26 02:41:21;;;;;;;11.15;5.40;;;;;;;6.68;66.52;101461.66;5050778;28;21600;-65
2023/11/26 02:43:48;;;;;;;18.52;5.88;;;;;;;7.88;69.81;101449.91;5051251;28;20163;-65
2023/11/26 02:46:16;;;;;;;16.15;4.97;;;;;;;8.93;65.81;101454.16;5053159;28;20053;-65
2023/11/26 02:48:43;;;;;;;15.43;4.93;;;;;;;9.11;63.41;101449.91;5052324;28;20515;-65
2023/11/26 02:51:11;;;;;;;15.55;5.50;;;;;;;9.15;63.64;101456.50;5035148;28;20057;-66
2023/11/26 02:53:38;;;;;;;16.55;5.47;;;;;;;9.17;64.00;101450.72;5051469;28;20052;-66
2023/11/26 02:56:05;;;;;;;15.40;5.55;;;;;;;9.27;61.80;101450.63;5053193;28;20053;-65
2023/11/26 02:58:33;;;;;;;17.25;5.70;;;;;;;9.01;64.09;101460.97;5062034;28;20056;-65
2023/11/26 03:01:00;;;;;;;18.83;6.40;;;;;;;8.68;61.86;101446.06;5054438;28;20055;-69
2023/11/26 03:03:27;;;;;;;16.65;6.88;;;;;;;7.35;63.21;101446.97;5072824;28;20059;-68
2023/11/26 03:05:55;;;;;;;20.15;6.55;;;;;;;7.07;66.41;101451.06;5072919;28;20053;-68
2023/11/26 03:08:28;;;;;;;17.40;7.45;;;;;;;7.35;70.42;101445.06;5072141;28;20056;-68
2023/11/26 03:13:41;;;;;;;18.40;6.38;;;;;;;7.17;70.28;101444.75;5070689;28;20056;-64
2023/11/26 03:16:11;;;;;;;17.05;6.50;;;;;;;7.79;69.43;101439.78;5072719;28;20048;-68
2023/11/26 03:18:38;;;;;;;19.45;6.47;;;;;;;6.48;65.50;101445.19;5071707;28;20492;-70
2023/11/26 03:21:07;;;;;;;18.83;6.50;;;;;;;5.76;67.72;101446.97;5054781;28;20060;-69
2023/11/26 03:23:34;;;;;;;17.77;6.53;;;;;;;5.71;71.55;101442.31;5072212;28;20045;-68
2023/11/26 03:26:01;;;;;;;20.55;6.45;;;;;;;5.46;72.17;101450.31;5057464;28;20137;-67
2023/11/26 03:28:28;;;;;;;17.73;6.78;;;;;;;5.52;72.13;101453.91;5052320;28;20061;-64
2023/11/26 03:30:56;;;;;;;14.77;5.80;;;;;;;6.10;76.30;101451.03;5034762;28;20053;-65
2023/11/26 03:33:26;;;;;;;16.40;6.22;;;;;;;6.18;76.20;101457.91;5061122;28;20032;-64
2023/11/26 03:35:54;;;;;;;14.48;7.03;;;;;;;5.69;70.73;101452.69;5054110;28;20052;-67
2023/11/26 03:38:21;;;;;;;18.50;6.15;;;;;;;5.58;71.06;101442.75;5072869;28;20041;-69
2023/11/26 03:40:48;;;;;;;20.65;7.25;;;;;;;5.15;72.26;101444.88;5072898;28;20048;-69
2023/11/26 03:43:15;;;;;;;16.40;6.07;;;;;;;5.13;76.74;101444.31;5052578;28;20059;-69
2023/11/26 03:45:43;;;;;;;20.00;6.70;;;;;;;5.53;74.23;101452.81;5050920;28;20063;-68
2023/11/26 03:48:11;;;;;;;18.95;6.20;;;;;;;5.78;73.86;101452.19;5046197;28;20048;-65
2023/11/26 03:50:38;;;;;;;21.10;6.40;;;;;;;5.37;73.28;101437.44;5031861;28;20046;-65
2023/11/26 03:53:05;;;;;;;15.63;5.85;;;;;;;6.26;77.27;101444.53;5037005;28;20041;-65
2023/11/26 03:55:33;;;;;;;19.80;6.60;;;;;;;6.07;73.55;101448.00;5048285;28;20061;-68
2023/11/26 03:58:00;;;;;;;14.18;5.65;;;;;;;6.06;76.46;101447.19;5043772;28;20045;-68
2023/11/26 04:00:28;;;;;;;15.30;5.55;;;;;;;6.51;78.37;101443.81;5067969;28;20059;-68
2023/11/26 04:02:55;;;;;;;18.20;5.90;;;;;;;6.04;75.44;101441.16;5050691;28;20049;-68
2023/11/26 04:05:23;;;;;;;21.38;6.78;;;;;;;6.30;77.32;101434.72;5049734;28;20053;-68
2023/11/26 04:07:51;;;;;;;16.88;6.30;;;;;;;6.17;75.51;101437.13;5032076;28;20464;-68
2023/11/26 04:10:18;;;;;;;17.15;6.50;;;;;;;5.65;72.75;101442.53;5030652;28;20049;-68
2023/11/26 04:12:58;;;;;;;17.55;6.25;;;;;;;5.95;79.79;101441.91;5032030;28;20049;-68
2023/11/26 04:15:26;;;;;;;18.15;5.97;;;;;;;6.81;76.01;101439.25;5048976;28;20045;-65
2023/11/26 04:17:53;;;;;;;15.75;6.20;;;;;;;6.23;71.89;101436.88;5042043;28;20059;-64
2023/11/26 04:20:22;;;;;;;17.38;5.78;;;;;;;5.60;72.93;101435.13;5072049;28;20053;-65
2023/11/26 04:22:49;;;;;;;12.55;6.30;;;;;;;5.67;78.79;101437.63;5056415;28;20060;-65
2023/11/26 04:25:17;;;;;;;19.65;5.90;;;;;;;6.00;74.10;101448.25;5064016;28;20060;-65
2023/11/26 04:27:44;;;;;;;15.60;6.18;;;;;;;6.95;76.39;101442.28;5035935;28;20052;-68
2023/11/26 04:30:12;;;;;;;17.27;6.15;;;;;;;7.41;74.12;101440.41;5034807;28;20049;-68
2023/11/26 04:32:39;;;;;;;13.65;5.43;;;;;;;7.56;72.57;101437.63;5023321;28;20075;-66
2023/11/26 04:35:08;;;;;;;15.23;6.28;;;;;;;6.49;70.29;101438.59;5074730;28;20059;-66
2023/11/26 04:37:36;;;;;;;19.85;6.40;;;;;;;5.47;72.07;101440.22;5075153;28;20052;-66
2023/11/26 04:40:05;;;;;;;15.05;5.97;;;;;;;6.09;76.12;101434.88;5073175;28;20842;-65
2023/11/26 04:42:33;;;;;;;15.80;6.20;;;;;;;5.68;74.89;101436.56;5057726;28;20404;-68
2023/11/26 04:45:00;;;;;;;14.85;5.90;;;;;;;5.85;77.14;101439.13;5036853;28;20057;-68
2023/11/26 04:47:27;;;;;;;16.50;6.05;;;;;;;6.53;75.92;101439.72;5054548;28;20060;-69
2023/11/26 04:49:58;;;;;;;16.73;5.97;;;;;;;6.97;73.27;101445.56;5054308;28;20056;-69
2023/11/26 04:52:25;;;;;;;16.17;6.30;;;;;;;6.90;74.86;101442.28;5060183;28;20056;-69
2023/11/26 04:54:53;;;;;;;17.83;6.00;;;;;;;6.85;74.39;101439.53;5039950;28;20052;-69
2023/11/26 04:57:20;;;;;;;15.35;6.53;;;;;;;6.78;73.68;101438.97;5055867;28;20059;-69
2023/11/26 04:59:47;;;;;;;18.85;6.55;;;;;;;6.66;71.77;101438.38;5054498;28;20052;-64
2023/11/26 05:02:18;;;;;;;15.30;6.22;;;;;;;6.76;74.70;101432.94;5054285;28;20053;-65
2023/11/26 05:04:45;;;;;;;20.13;6.03;;;;;;;6.85;74.48;101443.06;5055298;28;20428;-65
2023/11/26 05:07:13;;;;;;;22.25;6.00;;;;;;;6.01;71.74;101444.44;5054615;28;20171;-69
2023/11/26 05:09:40;;;;;;;19.70;6.78;;;;;;;5.99;74.07;101443.88;5041582;28;20069;-69
2023/11/26 05:12:07;;;;;;;20.63;6.40;;;;;;;6.05;73.38;101437.31;5053716;28;20060;-69
2023/11/26 05:14:34;;;;;;;18.50;6.15;;;;;;;5.57;73.70;101443.84;5054984;28;20067;-68
2023/11/26 05:17:02;;;;;;;12.45;5.55;;;;;;;5.09;75.77;101440.47;5053346;28;20381;-69
2023/11/26 05:19:30;;;;;;;17.38;6.28;;;;;;;4.77;77.76;101436.88;5033857;28;20053;-69
2023/11/26 05:21:57;;;;;;;23.35;6.75;;;;;;;4.82;78.62;101431.44;5050201;28;20049;-69
2023/11/26 05:24:24;;;;;;;19.58;6.43;;;;;;;4.98;78.07;101439.53;5053053;28;20045;-69
2023/11/26 05:26:53;;;;;;;15.45;5.97;;;;;;;4.80;78.73;101433.63;5035029;28;20049;-69
2023/11/26 05:29:20;;;;;;;17.52;6.13;;;;;;;4.53;79.73;101439.88;5034868;28;20053;-68
2023/11/26 05:31:47;;;;;;;18.88;6.50;;;;;;;4.48;81.11;101444.47;5034692;28;20057;-66
2023/11/26 05:34:17;;;;;;;20.67;6.57;;;;;;;4.59;79.91;101446.22;5049144;28;20059;-67
2023/11/26 05:36:46;;;;;;;16.27;6.57;;;;;;;4.63;81.55;101444.63;5054507;28;20057;-67
2023/11/26 05:39:14;;;;;;;19.30;6.45;;;;;;;5.13;80.46;101438.84;5032914;28;20054;-65
2023/11/26 05:41:42;;;;;;;17.17;6.00;;;;;;;5.90;84.42;101439.16;5038405;28;20059;-65
2023/11/26 05:44:09;;;;;;;16.00;6.07;;;;;;;5.73;80.59;101436.56;5035830;28;20049;-66
2023/11/26 05:46:36;;;;;;;16.70;5.85;;;;;;;6.67;79.38;101438.13;5052957;28;20049;-65
2023/11/26 05:49:04;;;;;;;18.17;6.47;;;;;;;7.82;78.01;101431.00;5036458;28;20067;-65
2023/11/26 05:51:31;;;;;;;16.58;5.72;;;;;;;8.08;73.58;101418.84;5054269;28;20049;-65
2023/11/26 05:53:58;;;;;;;17.90;6.43;;;;;;;8.07;70.15;101419.13;5052309;28;20041;-66
2023/11/26 05:56:25;;;;;;;18.77;5.90;;;;;;;7.47;69.36;101428.31;5053146;28;20053;-66
2023/11/26 05:58:53;;;;;;;14.60;5.70;;;;;;;6.85;69.99;101428.59;5066904;28;20045;-65
2023/11/26 06:01:25;;;;;;;13.95;5.30;;;;;;;6.25;71.58;101423.75;5072328;28;20048;-67
2023/11/26 06:03:56;;;;;;;19.27;6.35;;;;;;;5.55;73.86;101428.78;5073674;28;20045;-66
2023/11/26 06:06:23;;;;;;;17.88;6.55;;;;;;;5.62;74.64;101427.50;5055414;28;20052;-67
2023/11/26 06:08:50;;;;;;;19.73;6.20;;;;;;;5.76;75.86;101422.38;5072217;28;20060;-67
2023/11/26 06:11:18;;;;;;;19.20;6.45;;;;;;;5.86;78.12;101432.59;5073683;28;20056;-65
2023/11/26 06:13:45;;;;;;;25.13;6.47;;;;;;;6.31;79.09;101425.41;5064108;28;20646;-66
2023/11/26 06:16:13;;;;;;;16.45;5.85;;;;;;;6.06;74.91;101429.94;5034017;28;20045;-65
2023/11/26 06:18:40;;;;;;;19.25;6.00;;;;;;;5.96;75.31;101430.75;5062215;28;20052;-66
2023/11/26 06:21:08;;;;;;;15.27;5.60;;;;;;;6.18;77.21;101434.13;5073672;28;20051;-65
2023/11/26 06:23:35;;;;;;;18.90;5.63;;;;;;;6.98;77.27;101436.25;5087922;28;20059;-65
2023/11/26 06:26:02;;;;;;;18.33;6.07;;;;;;;6.67;75.29;101440.88;5050718;28;20060;-66
2023/11/26 06:28:30;;;;;;;15.10;5.80;;;;;;;6.99;77.20;101437.88;5032955;28;20057;-66
2023/11/26 06:30:57;;;;;;;13.80;5.38;;;;;;;6.72;75.34;101440.88;5033616;28;20041;-66
2023/11/26 06:33:25;;;;;;;17.02;5.88;;;;;;;6.05;73.90;101440.06;5040298;28;20045;-65
2023/11/26 06:35:52;;;;;;;22.80;6.43;;;;;;;6.21;73.94;101440.94;5052513;28;20060;-65
2023/11/26 06:38:20;;;;;;;12.65;5.80;;;;;;;6.04;73.12;101440.31;5052898;28;20049;-65
2023/11/26 06:40:47;;;;;;;14.68;6.20;;;;;;;6.02;73.43;101437.03;5052525;28;20048;-66
2023/11/26 06:43:16;;;;;;;19.33;5.63;;;;;;;6.47;76.38;101446.25;5050678;28;20049;-65
2023/11/26 06:45:43;;;;;;;16.00;5.65;;;;;;;6.52;74.20;101443.53;5053002;28;20048;-66
2023/11/26 06:48:10;;;;;;;15.93;6.05;;;;;;;5.91;73.54;101441.63;5051274;28;20076;-66
2023/11/26 06:50:38;;;;;;;17.60;5.93;;;;;;;5.92;74.09;101435.09;5052951;28;20053;-65
2023/11/26 06:53:05;;;;;;;19.05;5.38;;;;;;;6.16;74.54;101440.94;5063088;28;20419;-66
2023/11/26 06:55:32;;;;;;;13.73;5.82;;;;;;;6.13;73.76;101434.09;5071926;28;20044;-66
2023/11/26 06:57:59;;;;;;;15.70;5.82;;;;;;;6.11;74.29;101441.75;5058188;28;20049;-67
2023/11/26 07:00:27;;;;;;;17.58;5.70;;;;;;;6.09;74.67;101438.44;5051181;28;20060;-66
2023/11/26 07:02:54;;;;;;;16.08;6.13;;;;;;;6.22;76.89;101437.16;5034296;28;20056;-68
2023/11/26 07:05:22;;;;;;;15.60;5.93;;;;;;;5.95;74.99;101437.28;5053178;28;20076;-69
2023/11/26 07:07:49;;;;;;;18.75;6.78;;;;;;;6.14;75.60;101445.84;5017823;28;20057;-69
2023/11/26 07:10:17;;;;;;;16.83;5.50;;;;;;;5.84;76.18;101432.03;5052130;28;20052;-69
2023/11/26 07:12:45;;;;;;;16.05;5.43;;;;;;;6.33;80.19;101431.44;5043752;28;20072;-68
2023/11/26 07:15:15;;;;;;;15.77;5.50;;;;;;;7.84;76.33;101428.81;5031332;28;20049;-68
2023/11/26 07:17:43;;;;;;;19.83;6.53;;;;;;;8.28;73.73;101424.28;5045881;28;20395;-69
2023/11/26 07:20:13;;;;;;;12.73;5.40;;;;;;;7.49;68.46;101423.38;5064498;28;20540;-69
2023/11/26 07:22:40;;;;;;;15.48;6.07;;;;;;;6.59;72.86;101435.09;5031207;28;20083;-70
2023/11/26 07:25:08;;;;;;;13.43;5.50;;;;;;;5.88;72.91;101433.13;5047662;28;20048;-66
2023/11/26 07:27:35;;;;;;;16.23;6.00;;;;;;;5.38;75.92;101430.88;5032217;28;20056;-65
2023/11/26 07:30:03;;;;;;;22.85;6.07;;;;;;;5.57;76.56;101423.91;5032291;28;20053;-65
2023/11/26 07:32:30;;;;;;;16.38;5.45;;;;;;;5.73;76.20;101429.22;5035764;28;20056;-69
2023/11/26 07:34:58;;;;;;;20.15;5.93;;;;;;;5.95;75.82;101437.28;5072535;28;20546;-68
2023/11/26 07:37:27;;;;;;;15.95;5.85;;;;;;;6.61;77.58;101444.66;5070833;28;20492;-66
2023/11/26 07:39:55;;;;;;;20.10;6.20;;;;;;;6.30;73.99;101440.19;5072251;28;20060;-67
2023/11/26 07:42:22;;;;;;;16.92;6.22;;;;;;;6.40;74.73;101440.22;5060926;28;20068;-66
2023/11/26 07:44:50;;;;;;;19.27;5.45;;;;;;;6.68;75.87;101447.13;5037224;28;20168;-66
2023/11/26 07:47:17;;;;;;;14.52;6.10;;;;;;;6.63;74.79;101447.13;5030873;28;20053;-66
2023/11/26 07:49:45;;;;;;;17.63;5.10;;;;;;;6.57;73.67;101445.47;5032458;28;20053;-68
2023/11/26 07:52:12;;;;;;;18.65;5.80;;;;;;;6.17;73.45;101454.34;5053469;28;20055;-66
2023/11/26 07:54:39;;;;;;;18.95;6.35;;;;;;;6.17;74.19;101454.34;5072164;28;20063;-66
2023/11/26 07:57:07;;;;;;;21.05;5.88;;;;;;;5.81;74.57;101451.63;5067279;28;20170;-67
2023/11/26 07:59:34;;;;;;;12.75;4.93;;;;;;;5.95;75.66;101450.94;5063057;28;20059;-67
2023/11/26 08:02:01;;;;;;;12.45;5.03;;;;;;;6.45;77.74;101453.13;5049431;28;20057;-67
2023/11/26 08:04:28;;;;;;;18.65;5.57;;;;;;;6.15;75.08;101459.28;5035155;28;20045;-65
2023/11/26 08:06:56;;;;;;;13.52;5.55;;;;;;;6.20;75.49;101459.28;5044140;28;20056;-67
2023/11/26 08:09:23;;;;;;;17.05;6.13;;;;;;;5.95;75.73;101463.78;5036534;28;20060;-66
2023/11/26 08:11:55;;;;;;;21.30;6.13;;;;;;;6.08;76.99;101464.16;5055593;28;20061;-65
2023/11/26 08:14:23;;;;;;;14.13;5.30;;;;;;;7.11;77.40;101467.78;5054301;28;20059;-66
2023/11/26 08:16:50;;;;;;;17.10;5.93;;;;;;;6.67;74.62;101465.50;5054048;28;20056;-66
2023/11/26 08:19:18;;;;;;;16.55;5.53;;;;;;;7.30;75.91;101455.19;5074204;28;20052;-66
2023/11/26 08:21:47;;;;;;;16.95;5.43;;;;;;;6.66;72.64;101460.28;5076296;28;20064;-66
2023/11/26 08:24:18;;;;;;;19.08;6.18;;;;;;;6.60;75.09;101456.72;5074694;28;20049;-69
2023/11/26 08:26:47;;;;;;;16.45;5.10;;;;;;;6.63;75.81;101458.91;5055188;28;20045;-69
2023/11/26 08:29:18;;;;;;;18.30;6.53;;;;;;;6.60;75.12;101475.03;5056258;28;20076;-68
2023/11/26 08:31:49;;;;;;;16.17;6.25;;;;;;;6.52;74.63;101470.91;5038400;28;20048;-70
2023/11/26 08:34:17;;;;;;;14.02;5.55;;;;;;;6.57;74.76;101476.41;5053937;28;20053;-68
2023/11/26 08:36:45;;;;;;;15.95;5.70;;;;;;;6.44;76.03;101476.91;5055099;28;20060;-69
2023/11/26 08:39:25;;;;;;;15.70;5.38;;;;;;;7.65;77.44;101469.69;5055284;28;20059;-68
2023/11/26 08:41:54;;;;;;;22.75;6.00;;;;;;;6.36;72.41;101474.66;5039350;28;20060;-66
2023/11/26 08:44:21;;;;;;;18.90;6.00;;;;;;;6.04;77.21;101479.44;5054210;28;20052;-65
2023/11/26 08:46:48;;;;;;;12.27;5.32;;;;;;;6.87;77.69;101478.41;5055257;28;20060;-66
2023/11/26 08:49:20;;;;;;;16.45;6.05;;;;;;;6.17;74.88;101480.88;5055447;28;20444;-66
2023/11/26 08:51:48;;;;;;;18.88;6.45;;;;;;;5.64;79.32;101482.72;5055197;28;20048;-69
2023/11/26 08:54:15;;;;;;;16.23;6.30;;;;;;;5.75;77.42;101476.22;5034143;28;20397;-65
2023/11/26 08:56:43;;;;;;;16.85;6.55;;;;;;;6.80;81.86;101475.09;5053537;28;20060;-69
2023/11/26 08:59:10;;;;;;;18.60;5.82;;;;;;;8.12;75.51;101463.84;5070454;28;20052;-69
2023/11/26 09:01:41;;;;;;;17.08;5.47;;;;;;;8.53;72.45;101467.28;5073654;28;20055;-69
2023/11/26 09:04:08;;;;;;;18.80;5.80;;;;;;;8.63;70.97;101461.75;5056583;28;20057;-69
2023/11/26 09:06:38;;;;;;;17.52;6.20;;;;;;;7.71;70.57;101463.09;5053917;28;20060;-70
2023/11/26 09:09:07;;;;;;;13.90;5.38;;;;;;;8.13;75.16;101461.91;5053573;28;20056;-69
2023/11/26 09:11:34;;;;;;;19.90;6.05;;;;;;;8.28;72.50;101467.41;5055037;28;20056;-68
2023/11/26 09:14:01;;;;;;;17.90;5.95;;;;;;;7.43;68.96;101465.59;5070078;28;20060;-69
2023/11/26 09:16:33;;;;;;;13.85;5.88;;;;;;;7.02;74.32;101472.97;5054641;28;20053;-68
2023/11/26 09:19:01;;;;;;;13.18;5.57;;;;;;;6.74;72.88;101471.53;5072237;28;20057;-68
2023/11/26 09:21:28;;;;;;;14.85;5.95;;;;;;;6.50;73.09;101469.53;5090275;28;20679;-69
2023/11/26 09:23:56;;;;;;;14.30;5.75;;;;;;;6.31;74.86;101469.16;5065896;28;20061;-65
2023/11/26 09:26:27;;;;;;;15.52;6.25;;;;;;;6.24;74.02;101476.00;5051639;28;20049;-70
2023/11/26 09:28:54;;;;;;;19.45;5.78;;;;;;;8.23;75.36;101473.69;5052540;28;20040;-69
2023/11/26 09:31:24;;;;;;;14.65;5.25;;;;;;;8.57;70.70;101476.59;5054123;28;20060;-69
2023/11/26 09:33:51;;;;;;;14.98;5.68;;;;;;;8.63;68.78;101473.53;5056531;28;20064;-70
2023/11/26 09:36:19;;;;;;;16.65;5.78;;;;;;;8.76;72.15;101477.59;5052865;28;20421;-69
2023/11/26 09:38:46;;;;;;;16.13;5.55;;;;;;;8.83;68.10;101475.38;5054086;28;20045;-68
2023/11/26 09:41:20;;;;;;;16.55;5.90;;;;;;;8.21;68.73;101478.63;5051460;28;20528;-68
2023/11/26 09:43:47;;;;;;;13.70;5.63;;;;;;;7.72;68.25;101475.69;5052077;28;20041;-70
2023/11/26 09:46:15;;;;;;;16.85;6.35;;;;;;;6.60;71.33;101480.53;5052489;28;20057;-70
2023/11/26 09:48:44;;;;;;;15.55;6.43;;;;;;;6.94;73.06;101486.38;5033107;28;20069;-69
2023/11/26 09:51:13;;;;;;;18.13;5.95;;;;;;;6.76;72.84;101477.53;5042042;28;20040;-68
2023/11/26 09:53:40;;;;;;;16.80;6.15;;;;;;;7.08;73.02;101484.75;5060575;28;20045;-69
2023/11/26 09:56:11;;;;;;;13.15;6.28;;;;;;;7.25;75.47;101488.06;5052015;28;20045;-67
2023/11/26 09:58:39;;;;;;;15.07;5.22;;;;;;;8.12;72.66;101474.81;5052876;28;20040;-67
2023/11/26 10:01:07;;;;;;;14.35;5.10;;;;;;;8.35;73.35;101467.91;5051739;28;20049;-67
2023/11/26 10:03:54;;;;;;;18.50;5.60;;;;;;;6.85;72.52;101462.25;5053410;28;20053;-67
2023/11/26 10:06:21;;;;;;;16.50;5.88;;;;;;;7.05;74.03;101466.09;5053066;28;20063;-67
2023/11/26 10:08:49;;;;;;;16.98;5.43;;;;;;;6.57;73.21;101470.91;5053237;28;20041;-65
2023/11/26 10:11:24;;;;;;;17.17;5.68;;;;;;;6.84;78.66;101455.13;5051339;28;20053;-65
2023/11/26 10:13:52;;;;;;;13.68;5.50;;;;;;;6.51;74.56;101452.84;5053167;28;20044;-67
2023/11/26 10:16:33;;;;;;;16.20;5.38;;;;;;;6.52;74.30;101451.75;5052117;28;20049;-66
2023/11/26 10:19:02;;;;;;;14.43;6.50;;;;;;;6.51;75.98;101452.84;5055352;28;20049;-67
2023/11/26 10:21:31;;;;;;;20.42;6.22;;;;;;;7.49;79.44;101443.41;5051904;28;20045;-68
2023/11/26 10:24:02;;;;;;;17.02;5.80;;;;;;;7.59;77.41;101448.03;5053167;28;20052;-67
2023/11/26 10:26:31;;;;;;;18.85;6.10;;;;;;;8.65;75.01;101438.38;5047717;28;20048;-68
2023/11/26 10:29:09;;;;;;;15.68;5.80;;;;;;;8.86;68.74;101436.34;5036106;28;20294;-68
2023/11/26 10:31:36;;;;;;;14.85;5.93;;;;;;;8.80;71.47;101424.56;5051949;28;20049;-68
2023/11/26 10:34:07;;;;;;;13.70;5.55;;;;;;;8.27;66.88;101436.38;5067633;28;20052;-69
2023/11/26 10:36:35;;;;;;;16.83;5.93;;;;;;;7.90;71.06;101433.16;5070341;28;20059;-68
2023/11/26 10:39:04;;;;;;;13.95;5.72;;;;;;;8.18;73.71;101428.97;5064785;28;20052;-66
2023/11/26 10:41:35;;;;;;;13.73;6.03;;;;;;;8.33;70.50;101426.22;5051390;28;20053;-67
2023/11/26 10:44:05;;;;;;;15.82;6.38;;;;;;;8.25;71.35;101424.84;5050537;28;20060;-70
2023/11/26 10:46:34;;;;;;;16.73;5.68;;;;;;;9.42;71.74;101415.56;5051307;28;20045;-66
2023/11/26 10:49:22;;;;;;;16.55;5.95;;;;;;;9.67;68.10;101418.09;5052738;28;20041;-68
2023/11/26 10:52:06;;;;;;;12.77;5.90;;;;;;;9.00;66.41;101415.34;5052417;28;20045;-68
2023/11/26 10:54:41;;;;;;;15.55;6.18;;;;;;;9.51;70.16;101413.00;5037876;28;20437;-67
2023/11/26 10:57:41;;;;;;;16.02;5.22;;;;;;;8.79;68.18;101422.94;5052578;28;20055;-66
2023/11/26 11:00:13;;;;;;;14.38;5.30;;;;;;;8.78;68.11;101417.72;5045454;28;20061;-68
2023/11/26 11:02:41;;;;;;;12.90;5.50;;;;;;;8.02;68.45;101421.91;5047150;28;20052;-67
2023/11/26 11:05:17;;;;;;;11.07;5.18;;;;;;;8.09;68.53;101412.25;5038507;28;20045;-72
2023/11/26 11:11:42;;;;;;;14.70;5.07;;;;;;;9.45;65.70;101408.69;4974985;28;20053;-64
2023/11/26 11:14:10;;;;;;;14.07;5.50;;;;;;;9.19;64.58;101416.31;5027993;28;20476;-65
2023/11/26 11:16:38;;;;;;;14.93;5.43;;;;;;;8.90;68.64;101404.44;5004026;28;20042;-64
2023/11/26 11:19:05;;;;;;;11.27;4.80;;;;;;;9.77;65.91;101401.47;5029684;28;20049;-65
2023/11/26 11:21:46;;;;;;;11.18;5.03;;;;;;;9.58;62.61;101389.56;5029767;28;20050;-66
2023/11/26 11:24:19;;;;;;;13.50;5.07;;;;;;;8.79;63.92;101389.97;5029226;28;20608;-69
2023/11/26 11:26:47;;;;;;;23.90;5.50;;;;;;;9.05;65.49;101385.91;5028893;28;20046;-68
2023/11/26 11:29:44;;;;;;;20.98;4.63;;;;;;;9.92;61.88;101381.25;5012231;28;20493;-67
2023/11/26 11:32:11;;;;;;;12.20;4.00;;;;;;;10.04;60.03;101387.16;5024622;28;20077;-66
2023/11/26 11:34:39;;;;;;;10.15;4.00;;;;;;;10.31;58.62;101381.03;5032973;28;20635;-65
2023/11/26 11:37:08;;;;;;;12.02;3.72;;;;;;;10.48;56.75;101376.66;5021571;28;20050;-65